Time,TemperatureF,DewpointF,PressureIn,WindDirection,WindDirectionDegrees,WindSpeedMPH,WindSpeedGustMPH,Humidity,HourlyPrecipIn,Conditions,Clouds,dailyrainin,SoftwareType,DateUTC
2017-02-26 00:01:00,33.5,29.5,29.58,South,180,2.0,2.0,85,0.00,,,1.12,Wunderground v.1.13,2017-02-26 05:01:00,
2017-02-26 00:06:00,33.5,29.2,29.57,WSW,238,0.0,1.0,84,0.00,,,0.00,Wunderground v.1.13,2017-02-26 05:06:00,
2017-02-26 00:12:00,33.5,29.5,29.57,South,169,0.0,1.0,85,0.00,,,0.00,Wunderground v.1.13,2017-02-26 05:12:00,
2017-02-26 00:17:00,33.5,28.9,29.57,SSW,196,0.0,1.0,83,0.00,,,0.00,Wunderground v.1.13,2017-02-26 05:17:00,
2017-02-26 00:24:00,33.5,29.2,29.57,SSW,195,0.0,1.0,84,0.00,,,0.00,Wunderground v.1.13,2017-02-26 05:24:00,
2017-02-26 00:30:00,33.3,29.6,29.57,SW,215,3.0,3.0,86,0.00,,,0.00,Wunderground v.1.13,2017-02-26 05:30:00,
2017-02-26 00:35:00,33.4,28.5,29.57,WNW,293,3.0,3.0,82,0.00,,,0.00,Wunderground v.1.13,2017-02-26 05:35:00,
2017-02-26 00:41:00,33.5,28.9,29.57,WNW,294,3.0,3.0,83,0.00,,,0.00,Wunderground v.1.13,2017-02-26 05:41:00,
2017-02-26 00:47:00,33.6,28.4,29.57,SSE,165,0.0,1.0,81,0.00,,,0.00,Wunderground v.1.13,2017-02-26 05:47:00,
2017-02-26 00:54:00,33.5,28.3,29.58,West,281,2.0,3.0,81,0.00,,,0.00,Wunderground v.1.13,2017-02-26 05:54:00,
2017-02-26 01:00:00,33.4,29.1,29.58,NW,315,0.0,1.0,84,0.00,,,0.00,Wunderground v.1.13,2017-02-26 06:00:00,
2017-02-26 01:06:00,32.6,28.6,29.57,South,175,3.0,4.0,85,0.00,,,0.00,Wunderground v.1.13,2017-02-26 06:06:00,
2017-02-26 01:12:00,31.7,28.3,29.57,NW,325,2.0,5.0,87,0.00,,,0.00,Wunderground v.1.13,2017-02-26 06:12:00,
2017-02-26 01:18:00,31.4,28.0,29.57,SW,219,1.0,3.0,87,0.00,,,0.00,Wunderground v.1.13,2017-02-26 06:18:00,
2017-02-26 01:24:00,31.5,27.5,29.58,West,259,2.0,2.0,85,0.00,,,0.00,Wunderground v.1.13,2017-02-26 06:24:00,
2017-02-26 01:30:00,31.6,27.0,29.58,WNW,290,2.0,2.0,83,0.00,,,0.00,Wunderground v.1.13,2017-02-26 06:30:00,
2017-02-26 01:36:00,31.9,27.0,29.58,NNW,344,3.0,5.0,82,0.00,,,0.00,Wunderground v.1.13,2017-02-26 06:36:00,
2017-02-26 01:42:00,32.0,26.5,29.58,SSE,151,2.0,3.0,80,0.00,,,0.00,Wunderground v.1.13,2017-02-26 06:42:00,
2017-02-26 01:47:00,32.0,26.5,29.58,SW,226,2.0,2.0,80,0.00,,,0.00,Wunderground v.1.13,2017-02-26 06:47:00,
2017-02-26 01:54:00,32.0,26.2,29.58,West,276,9.0,9.0,79,0.00,,,0.00,Wunderground v.1.13,2017-02-26 06:54:00,
2017-02-26 02:00:00,31.9,26.1,29.58,North,355,7.0,7.0,79,0.00,,,0.00,Wunderground v.1.13,2017-02-26 07:00:00,
2017-02-26 02:05:00,31.7,25.9,29.58,NW,314,2.0,6.0,79,0.00,,,0.00,Wunderground v.1.13,2017-02-26 07:05:00,
2017-02-26 02:10:00,31.6,25.8,29.59,NNW,344,2.0,3.0,79,0.00,,,0.00,Wunderground v.1.13,2017-02-26 07:10:00,
2017-02-26 02:15:00,31.5,25.7,29.59,ENE,78,3.0,4.0,79,0.00,,,0.00,Wunderground v.1.13,2017-02-26 07:15:00,
2017-02-26 02:20:00,31.4,25.3,29.59,WNW,296,5.0,5.0,78,0.00,,,0.00,Wunderground v.1.13,2017-02-26 07:20:00,
2017-02-26 02:25:00,31.3,25.2,29.60,NW,311,0.0,4.0,78,0.00,,,0.00,Wunderground v.1.13,2017-02-26 07:25:00,
2017-02-26 02:30:00,31.3,25.2,29.60,West,274,5.0,5.0,78,0.00,,,0.01,Wunderground v.1.13,2017-02-26 07:30:00,
2017-02-26 02:35:00,31.2,25.1,29.60,NW,323,1.0,4.0,78,0.00,,,0.01,Wunderground v.1.13,2017-02-26 07:35:00,
2017-02-26 02:40:00,31.2,25.4,29.60,West,266,5.0,10.0,79,0.00,,,0.01,Wunderground v.1.13,2017-02-26 07:40:00,
2017-02-26 02:45:00,30.9,25.5,29.61,NE,36,8.0,9.0,80,0.00,,,0.01,Wunderground v.1.13,2017-02-26 07:45:00,
2017-02-26 02:50:00,30.7,25.9,29.61,ESE,106,1.0,2.0,82,0.00,,,0.01,Wunderground v.1.13,2017-02-26 07:50:00,
2017-02-26 02:55:00,30.5,25.7,29.62,SE,139,0.0,1.0,82,0.00,,,0.01,Wunderground v.1.13,2017-02-26 07:55:00,
2017-02-26 03:00:00,30.3,25.2,29.62,East,101,1.0,2.0,81,0.00,,,0.01,Wunderground v.1.13,2017-02-26 08:00:00,
2017-02-26 03:05:00,30.2,23.5,29.63,WNW,285,7.0,7.0,76,0.00,,,0.01,Wunderground v.1.13,2017-02-26 08:05:00,
2017-02-26 03:10:00,30.3,22.4,29.62,West,277,3.0,5.0,72,0.00,,,0.01,Wunderground v.1.13,2017-02-26 08:10:00,
2017-02-26 03:15:00,30.3,23.0,29.63,East,92,1.0,6.0,74,0.00,,,0.01,Wunderground v.1.13,2017-02-26 08:15:00,
2017-02-26 03:20:00,30.2,22.6,29.63,East,93,8.0,9.0,73,0.00,,,0.01,Wunderground v.1.13,2017-02-26 08:20:00,
2017-02-26 03:25:00,30.1,22.5,29.63,WSW,250,11.0,11.0,73,0.00,,,0.01,Wunderground v.1.13,2017-02-26 08:25:00,
2017-02-26 03:30:00,29.8,21.5,29.63,SW,217,5.0,7.0,71,0.00,,,0.01,Wunderground v.1.13,2017-02-26 08:30:00,
2017-02-26 03:35:00,29.8,21.9,29.63,West,263,7.0,7.0,72,0.00,,,0.01,Wunderground v.1.13,2017-02-26 08:35:00,
2017-02-26 03:40:00,29.7,21.8,29.63,West,279,2.0,4.0,72,0.00,,,0.01,Wunderground v.1.13,2017-02-26 08:40:00,
2017-02-26 03:45:00,29.7,22.1,29.63,WNW,300,6.0,6.0,73,0.00,,,0.01,Wunderground v.1.13,2017-02-26 08:45:00,
2017-02-26 03:50:00,29.6,22.3,29.64,North,355,1.0,3.0,74,0.00,,,0.01,Wunderground v.1.13,2017-02-26 08:50:00,
2017-02-26 03:55:00,29.3,23.3,29.65,SW,224,1.0,3.0,78,0.00,,,0.01,Wunderground v.1.13,2017-02-26 08:55:00,
2017-02-26 04:00:00,28.7,23.9,29.65,ESE,109,2.0,4.0,82,0.00,,,0.01,Wunderground v.1.13,2017-02-26 09:00:00,
2017-02-26 04:05:00,28.0,24.4,29.66,NW,313,1.0,2.0,86,0.00,,,0.01,Wunderground v.1.13,2017-02-26 09:05:00,
2017-02-26 04:10:00,27.4,24.3,29.66,West,263,5.0,6.0,88,0.00,,,0.01,Wunderground v.1.13,2017-02-26 09:10:00,
2017-02-26 04:15:00,27.1,23.5,29.66,SW,225,6.0,6.0,86,0.00,,,0.01,Wunderground v.1.13,2017-02-26 09:15:00,
2017-02-26 04:20:00,27.4,22.3,29.66,WNW,293,21.0,21.0,81,0.00,,,0.01,Wunderground v.1.13,2017-02-26 09:20:00,
2017-02-26 04:25:00,27.8,22.1,29.66,NNW,333,3.0,5.0,79,0.00,,,0.01,Wunderground v.1.13,2017-02-26 09:25:00,
2017-02-26 04:30:00,27.9,21.9,29.68,West,281,5.0,13.0,78,0.00,,,0.01,Wunderground v.1.13,2017-02-26 09:30:00,
2017-02-26 04:35:00,28.1,21.8,29.68,West,281,4.0,6.0,77,0.00,,,0.01,Wunderground v.1.13,2017-02-26 09:35:00,
2017-02-26 04:40:00,28.1,21.2,29.69,NW,313,5.0,6.0,75,0.00,,,0.01,Wunderground v.1.13,2017-02-26 09:40:00,
2017-02-26 04:45:00,28.2,21.3,29.69,West,271,0.0,4.0,75,0.00,,,0.01,Wunderground v.1.13,2017-02-26 09:45:00,
2017-02-26 04:50:00,28.2,21.0,29.69,West,264,3.0,5.0,74,0.00,,,0.01,Wunderground v.1.13,2017-02-26 09:50:00,
2017-02-26 04:55:00,28.1,21.5,29.70,North,5,5.0,5.0,76,0.00,,,0.01,Wunderground v.1.13,2017-02-26 09:55:00,
2017-02-26 05:00:00,28.1,21.2,29.70,NNW,346,4.0,4.0,75,0.00,,,0.01,Wunderground v.1.13,2017-02-26 10:00:00,
2017-02-26 05:05:00,28.0,21.4,29.71,West,278,0.0,4.0,76,0.00,,,0.01,Wunderground v.1.13,2017-02-26 10:05:00,
2017-02-26 05:10:00,27.9,21.0,29.71,WNW,301,0.0,4.0,75,0.00,,,0.01,Wunderground v.1.13,2017-02-26 10:10:00,
2017-02-26 05:15:00,27.8,21.5,29.72,West,264,2.0,4.0,77,0.00,,,0.01,Wunderground v.1.13,2017-02-26 10:15:00,
2017-02-26 05:20:00,27.8,20.9,29.72,NE,46,2.0,6.0,75,0.00,,,0.01,Wunderground v.1.13,2017-02-26 10:20:00,
2017-02-26 05:25:00,27.7,20.5,29.72,NNW,328,6.0,9.0,74,0.00,,,0.01,Wunderground v.1.13,2017-02-26 10:25:00,
2017-02-26 05:30:00,27.7,20.5,29.72,NW,311,4.0,9.0,74,0.00,,,0.01,Wunderground v.1.13,2017-02-26 10:30:00,
2017-02-26 05:35:00,27.6,20.1,29.72,West,281,4.0,6.0,73,0.00,,,0.01,Wunderground v.1.13,2017-02-26 10:35:00,
2017-02-26 05:40:00,27.6,20.4,29.73,NW,314,5.0,6.0,74,0.00,,,0.01,Wunderground v.1.13,2017-02-26 10:40:00,
2017-02-26 05:45:00,27.5,20.6,29.73,ESE,115,2.0,4.0,75,0.00,,,0.01,Wunderground v.1.13,2017-02-26 10:45:00,
2017-02-26 05:50:00,27.4,20.2,29.72,NNE,26,6.0,6.0,74,0.00,,,0.01,Wunderground v.1.13,2017-02-26 10:50:00,
2017-02-26 05:51:00,27.4,20.2,29.73,WNW,284,5.0,6.0,74,0.00,,,0.01,Wunderground v.1.13,2017-02-26 10:51:00,
2017-02-26 05:56:00,27.4,20.2,29.73,West,269,6.0,6.0,74,0.00,,,0.01,Wunderground v.1.13,2017-02-26 10:56:00,
2017-02-26 06:01:00,27.3,20.1,29.74,West,281,1.0,7.0,74,0.00,,,0.01,Wunderground v.1.13,2017-02-26 11:01:00,
2017-02-26 06:06:00,27.2,20.0,29.74,WNW,293,9.0,14.0,74,0.00,,,0.01,Wunderground v.1.13,2017-02-26 11:06:00,
2017-02-26 06:11:00,27.3,20.4,29.74,NW,304,0.0,4.0,75,0.00,,,0.01,Wunderground v.1.13,2017-02-26 11:11:00,
2017-02-26 06:18:00,27.1,20.2,29.74,North,351,4.0,4.0,75,0.00,,,0.01,Wunderground v.1.13,2017-02-26 11:18:00,
2017-02-26 06:24:00,27.1,20.2,29.75,WNW,288,3.0,13.0,75,0.00,,,0.01,Wunderground v.1.13,2017-02-26 11:24:00,
2017-02-26 06:29:00,27.2,20.6,29.75,NNW,333,2.0,7.0,76,0.00,,,0.01,Wunderground v.1.13,2017-02-26 11:29:00,
2017-02-26 06:34:00,27.1,20.5,29.75,West,259,3.0,4.0,76,0.00,,,0.01,Wunderground v.1.13,2017-02-26 11:34:00,
2017-02-26 06:39:00,26.9,21.3,29.75,WSW,257,5.0,5.0,79,0.00,,,0.01,Wunderground v.1.13,2017-02-26 11:39:00,
2017-02-26 06:44:00,26.6,21.6,29.76,WNW,291,1.0,12.0,81,0.00,,,0.01,Wunderground v.1.13,2017-02-26 11:44:00,
2017-02-26 06:49:00,26.1,21.9,29.77,NNW,344,4.0,13.0,84,0.00,,,0.01,Wunderground v.1.13,2017-02-26 11:49:00,
2017-02-26 06:55:00,25.6,22.0,29.77,ESE,117,3.0,4.0,86,0.00,,,0.01,Wunderground v.1.13,2017-02-26 11:55:00,
2017-02-26 07:00:00,25.7,21.3,29.78,WNW,284,10.0,12.0,83,0.00,,,0.01,Wunderground v.1.13,2017-02-26 12:00:00,
2017-02-26 07:05:00,25.6,21.7,29.78,WNW,301,0.0,4.0,85,0.00,,,0.01,Wunderground v.1.13,2017-02-26 12:05:00,
2017-02-26 07:10:00,25.4,21.8,29.78,West,271,1.0,5.0,86,0.00,,,0.01,Wunderground v.1.13,2017-02-26 12:10:00,
2017-02-26 07:15:00,25.4,21.8,29.79,WNW,294,9.0,12.0,86,0.00,,,0.01,Wunderground v.1.13,2017-02-26 12:15:00,
2017-02-26 07:20:00,25.5,21.1,29.79,WSW,257,4.0,5.0,83,0.00,,,0.01,Wunderground v.1.13,2017-02-26 12:20:00,
2017-02-26 07:25:00,25.6,20.9,29.79,West,259,4.0,10.0,82,0.00,,,0.01,Wunderground v.1.13,2017-02-26 12:25:00,
2017-02-26 07:30:00,25.5,21.1,29.79,WNW,289,4.0,9.0,83,0.00,,,0.01,Wunderground v.1.13,2017-02-26 12:30:00,
2017-02-26 07:35:00,25.2,21.3,29.80,WNW,290,2.0,4.0,85,0.00,,,0.01,Wunderground v.1.13,2017-02-26 12:35:00,
2017-02-26 07:40:00,25.0,21.4,29.80,West,267,1.0,3.0,86,0.00,,,0.01,Wunderground v.1.13,2017-02-26 12:40:00,
2017-02-26 07:45:00,24.7,21.4,29.81,West,270,0.0,3.0,87,0.00,,,0.01,Wunderground v.1.13,2017-02-26 12:45:00,
2017-02-26 07:50:00,24.6,21.6,29.81,SSW,205,0.0,3.0,88,0.00,,,0.01,Wunderground v.1.13,2017-02-26 12:50:00,
2017-02-26 07:55:00,24.7,21.7,29.81,West,275,4.0,4.0,88,0.00,,,0.01,Wunderground v.1.13,2017-02-26 12:55:00,
2017-02-26 08:00:00,24.8,21.8,29.82,East,87,4.0,5.0,88,0.00,,,0.01,Wunderground v.1.13,2017-02-26 13:00:00,
2017-02-26 08:05:00,24.9,21.6,29.82,NW,309,6.0,6.0,87,0.00,,,0.01,Wunderground v.1.13,2017-02-26 13:05:00,
2017-02-26 08:10:00,24.9,21.8,29.82,WNW,296,5.0,6.0,88,0.00,,,0.01,Wunderground v.1.13,2017-02-26 13:10:00,
2017-02-26 08:15:00,24.9,21.6,29.82,NNW,348,3.0,3.0,87,0.00,,,0.01,Wunderground v.1.13,2017-02-26 13:15:00,
2017-02-26 08:20:00,24.9,21.6,29.83,ENE,67,3.0,4.0,87,0.00,,,0.01,Wunderground v.1.13,2017-02-26 13:20:00,
2017-02-26 08:25:00,25.0,21.9,29.83,NW,317,2.0,2.0,88,0.00,,,0.01,Wunderground v.1.13,2017-02-26 13:25:00,
2017-02-26 08:30:00,25.0,21.9,29.83,NNE,16,2.0,4.0,88,0.00,,,0.01,Wunderground v.1.13,2017-02-26 13:30:00,
2017-02-26 08:35:00,25.1,21.8,29.84,WNW,298,3.0,4.0,87,0.00,,,0.01,Wunderground v.1.13,2017-02-26 13:35:00,
2017-02-26 08:40:00,25.3,21.7,29.84,West,268,1.0,3.0,86,0.00,,,0.01,Wunderground v.1.13,2017-02-26 13:40:00,
2017-02-26 08:45:00,25.5,21.9,29.84,ESE,103,3.0,3.0,86,0.00,,,0.01,Wunderground v.1.13,2017-02-26 13:45:00,
2017-02-26 08:50:00,25.5,21.6,29.84,West,273,7.0,11.0,85,0.00,,,0.01,Wunderground v.1.13,2017-02-26 13:50:00,
2017-02-26 08:55:00,25.5,21.3,29.85,NW,314,2.0,3.0,84,0.00,,,0.01,Wunderground v.1.13,2017-02-26 13:55:00,
2017-02-26 09:00:00,25.3,20.0,29.85,WSW,258,5.0,15.0,80,0.00,,,0.01,Wunderground v.1.13,2017-02-26 14:00:00,
2017-02-26 09:05:00,25.4,19.5,29.86,WNW,298,10.0,12.0,78,0.00,,,0.01,Wunderground v.1.13,2017-02-26 14:05:00,
2017-02-26 09:10:00,25.4,18.3,29.86,WNW,297,2.0,8.0,74,0.00,,,0.01,Wunderground v.1.13,2017-02-26 14:10:00,
2017-02-26 09:15:00,25.7,18.2,29.86,NW,326,13.0,13.0,73,0.00,,,0.01,Wunderground v.1.13,2017-02-26 14:15:00,
2017-02-26 09:20:00,25.8,18.7,29.86,SSE,150,5.0,6.0,74,0.00,,,0.01,Wunderground v.1.13,2017-02-26 14:20:00,
2017-02-26 09:25:00,26.1,18.9,29.86,NW,304,4.0,5.0,74,0.00,,,0.01,Wunderground v.1.13,2017-02-26 14:25:00,
2017-02-26 09:30:00,26.3,19.1,29.87,NE,50,1.0,13.0,74,0.00,,,0.01,Wunderground v.1.13,2017-02-26 14:30:00,
2017-02-26 09:35:00,26.5,18.7,29.87,NW,312,3.0,7.0,72,0.00,,,0.01,Wunderground v.1.13,2017-02-26 14:35:00,
2017-02-26 09:40:00,26.7,18.2,29.87,SE,133,4.0,13.0,70,0.00,,,0.01,Wunderground v.1.13,2017-02-26 14:40:00,
2017-02-26 09:45:00,27.2,18.4,29.88,NNE,28,3.0,6.0,69,0.00,,,0.01,Wunderground v.1.13,2017-02-26 14:45:00,
2017-02-26 09:50:00,27.4,18.2,29.89,West,272,16.0,16.0,68,0.00,,,0.01,Wunderground v.1.13,2017-02-26 14:50:00,
2017-02-26 09:55:00,27.3,17.4,29.88,West,281,10.0,10.0,66,0.00,,,0.01,Wunderground v.1.13,2017-02-26 14:55:00,
2017-02-26 10:00:00,27.3,17.1,29.89,NNE,32,2.0,12.0,65,0.00,,,0.01,Wunderground v.1.13,2017-02-26 15:00:00,
2017-02-26 10:05:00,27.3,17.1,29.89,NNE,26,13.0,13.0,65,0.00,,,0.01,Wunderground v.1.13,2017-02-26 15:05:00,
2017-02-26 10:10:00,27.8,17.6,29.89,NW,305,4.0,10.0,65,0.00,,,0.01,Wunderground v.1.13,2017-02-26 15:10:00,
2017-02-26 10:15:00,27.7,17.1,29.88,West,280,12.0,13.0,64,0.00,,,0.01,Wunderground v.1.13,2017-02-26 15:15:00,
2017-02-26 10:20:00,27.2,17.0,29.89,NW,307,5.0,15.0,65,0.00,,,0.01,Wunderground v.1.13,2017-02-26 15:20:00,
2017-02-26 10:25:00,27.8,18.3,29.89,WSW,245,4.0,5.0,67,0.00,,,0.01,Wunderground v.1.13,2017-02-26 15:25:00,
2017-02-26 10:30:00,28.4,17.8,29.89,West,275,14.0,14.0,64,0.00,,,0.01,Wunderground v.1.13,2017-02-26 15:30:00,
2017-02-26 10:35:00,27.7,16.7,29.89,WNW,298,15.0,19.0,63,0.00,,,0.01,Wunderground v.1.13,2017-02-26 15:35:00,
2017-02-26 10:40:00,27.4,16.8,29.89,ENE,67,5.0,15.0,64,0.00,,,0.01,Wunderground v.1.13,2017-02-26 15:40:00,
2017-02-26 10:45:00,28.0,17.4,29.89,NNW,332,1.0,7.0,64,0.00,,,0.01,Wunderground v.1.13,2017-02-26 15:45:00,
2017-02-26 10:50:00,28.6,17.6,29.90,West,267,4.0,14.0,63,0.00,,,0.02,Wunderground v.1.13,2017-02-26 15:50:00,
2017-02-26 10:55:00,28.7,17.7,29.90,WNW,293,13.0,22.0,63,0.00,,,0.02,Wunderground v.1.13,2017-02-26 15:55:00,
2017-02-26 11:00:00,29.0,17.6,29.90,West,271,9.0,13.0,62,0.00,,,0.02,Wunderground v.1.13,2017-02-26 16:00:00,
2017-02-26 11:06:00,28.7,17.3,29.90,NW,313,5.0,11.0,62,0.00,,,0.02,Wunderground v.1.13,2017-02-26 16:06:00,
2017-02-26 11:11:00,28.4,16.7,29.90,NW,306,3.0,9.0,61,0.00,,,0.02,Wunderground v.1.13,2017-02-26 16:11:00,
2017-02-26 11:16:00,28.5,17.5,29.91,NNW,334,2.0,18.0,63,0.00,,,0.02,Wunderground v.1.13,2017-02-26 16:16:00,
2017-02-26 11:21:00,28.4,16.7,29.90,West,267,8.0,11.0,61,0.00,,,0.02,Wunderground v.1.13,2017-02-26 16:21:00,
2017-02-26 11:26:00,27.8,15.7,29.91,West,263,6.0,15.0,60,0.00,,,0.02,Wunderground v.1.13,2017-02-26 16:26:00,
2017-02-26 11:31:00,28.3,16.6,29.91,NNW,346,4.0,13.0,61,0.00,,,0.02,Wunderground v.1.13,2017-02-26 16:31:00,
2017-02-26 11:36:00,28.8,17.8,29.91,NNW,332,3.0,8.0,63,0.00,,,0.02,Wunderground v.1.13,2017-02-26 16:36:00,
2017-02-26 11:41:00,29.4,16.8,29.91,ENE,69,3.0,15.0,59,0.00,,,0.02,Wunderground v.1.13,2017-02-26 16:41:00,
2017-02-26 11:46:00,30.3,17.7,29.91,West,265,3.0,10.0,59,0.00,,,0.02,Wunderground v.1.13,2017-02-26 16:46:00,
2017-02-26 11:51:00,29.7,16.3,29.91,NW,305,9.0,15.0,57,0.00,,,0.02,Wunderground v.1.13,2017-02-26 16:51:00,
2017-02-26 11:56:00,29.4,16.4,29.91,NE,49,5.0,19.0,58,0.00,,,0.02,Wunderground v.1.13,2017-02-26 16:56:00,
2017-02-26 12:01:00,29.0,16.1,29.91,NE,46,3.0,5.0,58,0.00,,,0.02,Wunderground v.1.13,2017-02-26 17:01:00,
2017-02-26 12:06:00,28.8,16.6,29.91,NW,323,12.0,13.0,60,0.00,,,0.03,Wunderground v.1.13,2017-02-26 17:06:00,
2017-02-26 12:11:00,28.1,16.0,29.91,NW,307,2.0,11.0,60,0.00,,,0.03,Wunderground v.1.13,2017-02-26 17:11:00,
2017-02-26 12:16:00,28.1,16.4,29.91,WNW,298,2.0,17.0,61,0.00,,,0.03,Wunderground v.1.13,2017-02-26 17:16:00,
2017-02-26 12:21:00,28.2,16.1,29.91,West,279,3.0,12.0,60,0.00,,,0.03,Wunderground v.1.13,2017-02-26 17:21:00,
2017-02-26 12:26:00,28.4,15.9,29.91,NE,45,3.0,13.0,59,0.00,,,0.03,Wunderground v.1.13,2017-02-26 17:26:00,
2017-02-26 12:31:00,28.8,16.6,29.91,WNW,296,3.0,10.0,60,0.00,,,0.03,Wunderground v.1.13,2017-02-26 17:31:00,
2017-02-26 12:36:00,28.8,16.6,29.91,NNW,346,3.0,15.0,60,0.00,,,0.03,Wunderground v.1.13,2017-02-26 17:36:00,
2017-02-26 12:41:00,28.6,16.8,29.91,West,275,8.0,13.0,61,0.00,,,0.03,Wunderground v.1.13,2017-02-26 17:41:00,
2017-02-26 12:46:00,28.9,16.7,29.91,NE,39,4.0,13.0,60,0.00,,,0.03,Wunderground v.1.13,2017-02-26 17:46:00,
2017-02-26 12:51:00,28.6,16.1,29.92,West,281,17.0,17.0,59,0.00,,,0.03,Wunderground v.1.13,2017-02-26 17:51:00,
2017-02-26 12:56:00,28.5,16.0,29.92,West,267,14.0,14.0,59,0.00,,,0.03,Wunderground v.1.13,2017-02-26 17:56:00,
2017-02-26 13:01:00,28.6,16.1,29.92,NNW,328,1.0,12.0,59,0.00,,,0.03,Wunderground v.1.13,2017-02-26 18:01:00,
2017-02-26 13:06:00,28.8,16.3,29.92,WNW,293,4.0,13.0,59,0.00,,,0.03,Wunderground v.1.13,2017-02-26 18:06:00,
2017-02-26 13:11:00,29.1,16.5,29.92,NNW,330,3.0,10.0,59,0.00,,,0.03,Wunderground v.1.13,2017-02-26 18:11:00,
2017-02-26 13:16:00,28.9,17.5,29.92,NNW,334,3.0,10.0,62,0.00,,,0.03,Wunderground v.1.13,2017-02-26 18:16:00,
2017-02-26 13:21:00,29.1,16.9,29.92,WNW,285,5.0,11.0,60,0.00,,,0.03,Wunderground v.1.13,2017-02-26 18:21:00,
2017-02-26 13:26:00,29.3,17.1,29.92,NW,320,4.0,14.0,60,0.00,,,0.03,Wunderground v.1.13,2017-02-26 18:26:00,
2017-02-26 13:31:00,29.8,17.6,29.92,WNW,284,10.0,17.0,60,0.00,,,0.03,Wunderground v.1.13,2017-02-26 18:31:00,
2017-02-26 13:36:00,30.2,17.6,29.92,NW,313,5.0,15.0,59,0.00,,,0.04,Wunderground v.1.13,2017-02-26 18:36:00,
2017-02-26 13:41:00,29.9,17.7,29.93,NE,35,6.0,10.0,60,0.00,,,0.04,Wunderground v.1.13,2017-02-26 18:41:00,
2017-02-26 13:46:00,30.7,18.8,29.93,NNW,340,6.0,9.0,61,0.00,,,0.04,Wunderground v.1.13,2017-02-26 18:46:00,
2017-02-26 13:51:00,31.2,18.1,29.93,NNE,18,1.0,7.0,58,0.00,,,0.04,Wunderground v.1.13,2017-02-26 18:51:00,
2017-02-26 13:56:00,31.2,17.7,29.93,NNW,329,5.0,9.0,57,0.00,,,0.04,Wunderground v.1.13,2017-02-26 18:56:00,
2017-02-26 14:01:00,31.4,18.3,29.94,NNE,18,0.0,11.0,58,0.00,,,0.05,Wunderground v.1.13,2017-02-26 19:01:00,
2017-02-26 14:06:00,31.9,18.8,29.93,NW,325,0.0,4.0,58,0.00,,,0.05,Wunderground v.1.13,2017-02-26 19:06:00,
2017-02-26 14:11:00,31.8,17.5,29.94,West,281,4.0,6.0,55,0.00,,,0.05,Wunderground v.1.13,2017-02-26 19:11:00,
2017-02-26 14:17:00,31.0,17.9,29.94,NNW,329,3.0,9.0,58,0.00,,,0.05,Wunderground v.1.13,2017-02-26 19:17:00,
2017-02-26 14:22:00,30.6,18.0,29.95,North,5,4.0,15.0,59,0.00,,,0.05,Wunderground v.1.13,2017-02-26 19:22:00,
2017-02-26 14:27:00,30.6,18.3,29.95,West,276,4.0,10.0,60,0.00,,,0.05,Wunderground v.1.13,2017-02-26 19:27:00,
2017-02-26 14:33:00,31.0,18.7,29.95,SSW,210,2.0,14.0,60,0.00,,,0.05,Wunderground v.1.13,2017-02-26 19:33:00,
2017-02-26 14:38:00,30.9,18.6,29.95,ESE,111,6.0,11.0,60,0.00,,,0.06,Wunderground v.1.13,2017-02-26 19:38:00,
2017-02-26 14:43:00,30.8,18.5,29.95,NW,312,0.0,10.0,60,0.00,,,0.06,Wunderground v.1.13,2017-02-26 19:43:00,
2017-02-26 14:48:00,30.3,18.1,29.95,WNW,303,9.0,15.0,60,0.00,,,0.06,Wunderground v.1.13,2017-02-26 19:48:00,
2017-02-26 14:55:00,30.3,18.8,29.96,West,275,3.0,4.0,62,0.00,,,0.06,Wunderground v.1.13,2017-02-26 19:55:00,
2017-02-26 15:00:00,30.4,18.9,29.96,NW,318,10.0,10.0,62,0.00,,,0.06,Wunderground v.1.13,2017-02-26 20:00:00,
2017-02-26 15:05:00,30.2,18.7,29.96,NNE,28,2.0,4.0,62,0.00,,,0.06,Wunderground v.1.13,2017-02-26 20:05:00,
2017-02-26 15:10:00,30.3,18.8,29.96,WSW,254,3.0,5.0,62,0.00,,,0.06,Wunderground v.1.13,2017-02-26 20:10:00,
2017-02-26 15:15:00,30.7,19.2,29.96,WNW,294,2.0,6.0,62,0.00,,,0.06,Wunderground v.1.13,2017-02-26 20:15:00,
2017-02-26 15:20:00,30.5,18.6,29.96,WNW,300,2.0,6.0,61,0.00,,,0.06,Wunderground v.1.13,2017-02-26 20:20:00,
2017-02-26 15:25:00,30.1,18.6,29.97,NW,313,1.0,5.0,62,0.00,,,0.06,Wunderground v.1.13,2017-02-26 20:25:00,
2017-02-26 15:30:00,30.4,19.7,29.97,NW,317,1.0,10.0,64,0.00,,,0.06,Wunderground v.1.13,2017-02-26 20:30:00,
2017-02-26 15:35:00,30.3,19.2,29.97,NW,321,0.0,13.0,63,0.00,,,0.06,Wunderground v.1.13,2017-02-26 20:35:00,
2017-02-26 15:40:00,30.1,19.4,29.98,East,89,0.0,5.0,64,0.00,,,0.06,Wunderground v.1.13,2017-02-26 20:40:00,
2017-02-26 15:45:00,30.5,19.4,29.98,East,100,5.0,5.0,63,0.00,,,0.06,Wunderground v.1.13,2017-02-26 20:45:00,